Strona główna
METAR-TAF:

METAR-TAF

Lotnisko :

Port lotniczy Newquay

Newquay Cornwall, Anglia

Szerokość geograficzna: 50-26N, Długość geograficzna: 005-00W, wysokość: 119 m

Aktualna obserwacja pogody

Raport powstał 24 minut temu, godzina 10:50 UTC
Wiatr 11 kt od wschodnio-południowy wschód
Temperatura 7°C
Wilgotność 76%
Ciśnienie 1017 hPa
Widzialność 10 km lub więcej
Brak chmur poniżej 1500 m i brak chmur cumulonimbus

METAR: EGHQ 271050Z 11011KT CAVOK 07/03 Q1017

czas: 11:14 (11:14 UTC)

Prognoza

Raport powstał 3 godziny i 18 minut temu, godzina 07:56 UTC
Prognoza ważna od 27 godzina 09 UTC do 27 godzina 18 UTC
Wiatr 9 kt od wschód
Widzialność 10 km lub więcej
Mało chmury na wysokości 4500 ft

TAF: EGHQ 270756Z 2709/2718 09009KT 9999 FEW045

Obserwacja i prognoza pogody dla ponad 4000 lotnisk (raport METAR i TAF).

Dostępne stacje oznaczono żółtymi i czerwonymi punktami na mapie.

Najedź kursorem aby zobaczyć nazwę stacji.

Kliknij aby zobaczyć obserwacje i prognozy pogody.

Aby zmienić mapę: kliknij na zielony przycisk z czarnym krzyżykiem, aby powiększyć; na zielony przycisk z myślnikiem, aby pomniejszyć; na zielone strzałki, aby przejść do map sąsiednich.


METAR-TAF: